createdAt,value
2018-09-27T00:00:32.612Z,1.77
2018-09-27T00:03:00.742Z,1.70
2018-09-27T00:05:28.928Z,1.80
2018-09-27T00:07:57.102Z,1.80
2018-09-27T00:10:25.275Z,1.63
2018-09-27T00:12:53.445Z,2.17
2018-09-27T00:15:21.602Z,1.70
2018-09-27T00:17:49.765Z,3.97
2018-09-27T00:20:17.953Z,1.90
2018-09-27T00:22:46.107Z,1.77
2018-09-27T00:25:14.242Z,1.83
2018-09-27T00:27:42.383Z,1.50
2018-09-27T00:30:10.523Z,1.60
2018-09-27T00:32:38.665Z,1.80
2018-09-27T00:35:06.899Z,1.57
2018-09-27T00:37:35.051Z,2.23
2018-09-27T00:40:03.214Z,1.83
2018-09-27T00:42:31.373Z,1.73
2018-09-27T00:44:59.548Z,1.40
2018-09-27T00:47:27.705Z,1.70
2018-09-27T00:49:55.846Z,1.57
2018-09-27T00:52:23.963Z,1.73
2018-09-27T00:54:52.135Z,1.77
2018-09-27T00:57:20.278Z,1.57
2018-09-27T00:59:48.437Z,1.80
2018-09-27T01:02:16.592Z,1.70
2018-09-27T01:04:44.731Z,2.00
2018-09-27T01:07:12.870Z,2.07
2018-09-27T01:09:41.012Z,1.93
2018-09-27T01:12:09.165Z,1.70
2018-09-27T01:14:37.322Z,1.70
2018-09-27T01:17:05.509Z,1.63
2018-09-27T01:19:33.684Z,2.37
2018-09-27T01:22:01.859Z,1.60
2018-09-27T01:24:29.966Z,1.60
2018-09-27T01:26:58.096Z,1.97
2018-09-27T01:29:26.245Z,1.70
2018-09-27T01:31:54.393Z,2.43
2018-09-27T01:34:22.517Z,1.83
2018-09-27T01:36:50.681Z,1.50
2018-09-27T01:39:18.807Z,2.10
2018-09-27T01:41:46.947Z,2.40
2018-09-27T01:44:15.082Z,1.53
2018-09-27T01:46:43.249Z,1.73
2018-09-27T01:49:11.414Z,2.27
2018-09-27T01:51:39.604Z,1.87
2018-09-27T01:54:07.771Z,2.23
2018-09-27T01:56:35.924Z,2.03
2018-09-27T01:59:04.157Z,2.80
2018-09-27T02:01:32.353Z,2.47
2018-09-27T02:04:00.569Z,1.70
2018-09-27T02:06:28.721Z,1.97
2018-09-27T02:08:56.853Z,2.20
2018-09-27T02:11:25.038Z,1.87
2018-09-27T02:13:53.169Z,2.20
2018-09-27T02:16:21.318Z,2.17
2018-09-27T02:18:49.470Z,1.83
2018-09-27T02:21:17.642Z,1.97
2018-09-27T02:23:45.802Z,1.57
2018-09-27T02:26:13.990Z,1.70
2018-09-27T02:28:42.144Z,1.90
2018-09-27T02:31:10.338Z,1.50
2018-09-27T02:33:38.513Z,2.20
2018-09-27T02:36:06.643Z,1.60
2018-09-27T02:38:34.800Z,2.17
2018-09-27T02:41:03.031Z,1.80
2018-09-27T02:43:31.141Z,1.67
2018-09-27T02:45:59.287Z,2.10
2018-09-27T02:48:27.466Z,1.50
2018-09-27T02:50:55.623Z,1.70
2018-09-27T02:53:23.778Z,2.07
2018-09-27T02:55:51.913Z,1.67
2018-09-27T02:58:20.062Z,1.53
2018-09-27T03:00:48.234Z,1.77
2018-09-27T03:03:16.452Z,1.40
2018-09-27T03:05:44.608Z,2.13
2018-09-27T03:08:12.794Z,1.77
2018-09-27T03:10:40.956Z,1.60
2018-09-27T03:13:09.128Z,1.90
2018-09-27T03:15:37.275Z,1.90
2018-09-27T03:18:05.435Z,1.60
2018-09-27T03:20:33.598Z,1.77
2018-09-27T03:23:01.773Z,1.80
2018-09-27T03:25:29.938Z,1.53
2018-09-27T03:27:58.098Z,1.80
2018-09-27T03:30:26.290Z,1.67
2018-09-27T03:32:57.373Z,2.10
2018-09-27T03:35:25.509Z,1.40
2018-09-27T03:37:53.853Z,1.73
2018-09-27T03:40:22.165Z,1.73
2018-09-27T03:42:50.317Z,1.60
2018-09-27T03:45:18.482Z,1.90
2018-09-27T03:47:46.659Z,2.23
2018-09-27T03:50:14.829Z,1.70
2018-09-27T03:52:42.993Z,2.43
2018-09-27T03:55:11.160Z,1.93
2018-09-27T03:57:39.288Z,2.00
2018-09-27T04:00:07.755Z,1.70
2018-09-27T04:02:35.905Z,1.80
2018-09-27T04:05:04.086Z,1.83
2018-09-27T04:07:32.226Z,2.30
2018-09-27T04:10:00.410Z,1.60
2018-09-27T04:12:28.573Z,2.20
2018-09-27T04:14:56.692Z,1.60
2018-09-27T04:17:24.827Z,1.70
2018-09-27T04:19:52.976Z,1.80
2018-09-27T04:22:21.129Z,1.90
2018-09-27T04:24:49.330Z,1.40
2018-09-27T04:27:17.458Z,1.60
2018-09-27T04:29:45.620Z,2.30
2018-09-27T04:32:13.742Z,1.57
2018-09-27T04:34:41.891Z,2.10
2018-09-27T04:37:10.013Z,1.73
2018-09-27T04:39:38.198Z,2.13
2018-09-27T04:42:06.306Z,2.13
2018-09-27T04:44:34.464Z,1.80
2018-09-27T04:47:02.627Z,1.80
2018-09-27T04:49:30.783Z,1.70
2018-09-27T04:51:58.953Z,1.90
2018-09-27T04:54:27.138Z,2.60
2018-09-27T04:56:55.326Z,1.77
2018-09-27T04:59:23.527Z,2.00
2018-09-27T05:01:51.710Z,1.87
2018-09-27T05:04:19.917Z,1.70
2018-09-27T05:06:48.161Z,2.43
2018-09-27T05:09:16.377Z,1.80
2018-09-27T05:11:44.590Z,1.93
2018-09-27T05:14:12.800Z,2.07
2018-09-27T05:16:40.998Z,2.10
2018-09-27T05:19:09.239Z,1.83
2018-09-27T05:21:37.456Z,1.83
2018-09-27T05:24:05.658Z,1.60
2018-09-27T05:26:33.862Z,2.17
2018-09-27T05:29:02.060Z,1.70
2018-09-27T05:31:30.282Z,1.60
2018-09-27T05:33:58.538Z,2.13
2018-09-27T05:36:26.737Z,1.90
2018-09-27T05:38:54.934Z,2.20
2018-09-27T05:41:23.132Z,1.83
2018-09-27T05:43:51.334Z,1.70
2018-09-27T05:46:19.509Z,1.70
2018-09-27T05:48:47.741Z,2.07
2018-09-27T05:51:15.934Z,1.63
2018-09-27T05:53:44.133Z,2.23
2018-09-27T05:56:12.321Z,1.90
2018-09-27T05:58:40.509Z,1.80
2018-09-27T06:01:08.745Z,1.50
2018-09-27T06:03:36.951Z,1.80
2018-09-27T06:06:05.171Z,1.80
2018-09-27T06:08:33.349Z,1.70
2018-09-27T06:11:01.951Z,1.50
2018-09-27T06:13:30.207Z,2.80
2018-09-27T06:15:58.412Z,2.00
2018-09-27T06:18:26.625Z,1.80
2018-09-27T06:20:54.812Z,1.83
2018-09-27T06:23:23.006Z,1.73
2018-09-27T06:25:51.240Z,2.13
2018-09-27T06:28:19.447Z,2.13
2018-09-27T06:30:47.658Z,1.50
2018-09-27T06:33:15.855Z,1.60
2018-09-27T06:35:44.042Z,1.50
2018-09-27T06:38:12.242Z,2.37
2018-09-27T06:40:40.447Z,1.90
2018-09-27T06:43:08.671Z,1.40
2018-09-27T06:45:36.962Z,1.60
2018-09-27T06:48:05.222Z,1.70
2018-09-27T06:50:33.449Z,2.70
2018-09-27T06:53:01.610Z,1.60
2018-09-27T06:55:30.097Z,1.50
2018-09-27T06:57:58.148Z,1.30
2018-09-27T07:00:26.405Z,1.40
2018-09-27T07:02:54.630Z,1.27
2018-09-27T07:05:22.831Z,1.73
2018-09-27T07:07:51.013Z,1.73
2018-09-27T07:10:19.218Z,1.30
2018-09-27T07:12:47.407Z,1.47
2018-09-27T07:15:15.593Z,1.77
2018-09-27T07:17:43.790Z,1.57
2018-09-27T07:20:12.232Z,1.80
2018-09-27T07:22:40.426Z,1.87
2018-09-27T07:25:08.653Z,1.57
2018-09-27T07:27:36.858Z,1.47
2018-09-27T07:30:05.049Z,1.30
2018-09-27T07:32:33.346Z,1.37
2018-09-27T07:35:01.550Z,1.57
2018-09-27T07:37:29.769Z,1.60
2018-09-27T07:39:57.974Z,1.93
2018-09-27T07:42:26.176Z,1.60
2018-09-27T07:44:54.389Z,1.40
2018-09-27T07:47:22.598Z,1.80
2018-09-27T07:49:50.791Z,1.40
2018-09-27T07:52:18.990Z,1.50
2018-09-27T07:54:47.177Z,1.80
2018-09-27T07:57:15.374Z,1.70
2018-09-27T07:59:43.577Z,1.70
2018-09-27T08:02:11.793Z,1.27
2018-09-27T08:04:40.018Z,1.83
2018-09-27T08:07:08.213Z,1.73
2018-09-27T08:09:36.390Z,1.40
2018-09-27T08:12:04.582Z,1.50
2018-09-27T08:14:32.795Z,1.43
2018-09-27T08:17:01.022Z,1.37
2018-09-27T08:19:29.181Z,1.67
2018-09-27T08:21:57.384Z,1.37
2018-09-27T08:24:25.614Z,2.10
2018-09-27T08:26:53.822Z,1.10
2018-09-27T08:29:22.001Z,1.23
2018-09-27T08:31:50.194Z,1.83
2018-09-27T08:34:18.414Z,1.60
2018-09-27T08:36:46.603Z,1.53
2018-09-27T08:39:14.801Z,1.30
2018-09-27T08:41:43.013Z,1.80
2018-09-27T08:44:11.883Z,1.37
2018-09-27T08:46:40.779Z,1.93
2018-09-27T08:49:09.080Z,1.20
2018-09-27T08:51:37.322Z,1.30
2018-09-27T08:54:05.498Z,1.47
2018-09-27T08:56:33.786Z,1.37
2018-09-27T08:59:01.906Z,1.50
2018-09-27T09:01:30.204Z,1.33
2018-09-27T09:03:58.432Z,1.20
2018-09-27T09:06:26.589Z,1.57
2018-09-27T09:08:54.801Z,1.33
2018-09-27T09:11:22.978Z,1.57
2018-09-27T09:13:51.188Z,2.10
2018-09-27T09:16:19.375Z,1.47
2018-09-27T09:18:47.550Z,1.97
2018-09-27T09:21:15.729Z,1.77
2018-09-27T09:23:43.895Z,2.07
2018-09-27T09:26:12.087Z,1.20
2018-09-27T09:28:40.373Z,1.70
2018-09-27T09:31:08.512Z,1.33
2018-09-27T09:33:36.767Z,1.77
2018-09-27T09:36:04.946Z,2.43
2018-09-27T09:38:33.217Z,2.90
2018-09-27T09:41:01.429Z,1.20
2018-09-27T09:43:29.597Z,1.43
2018-09-27T09:45:57.781Z,2.70
2018-09-27T09:48:25.980Z,1.40
2018-09-27T09:50:54.177Z,2.47
2018-09-27T09:53:22.362Z,1.70
2018-09-27T09:55:50.541Z,2.43
2018-09-27T09:58:18.712Z,2.83
2018-09-27T10:00:46.933Z,2.13
2018-09-27T10:03:15.111Z,3.43
2018-09-27T10:05:43.303Z,2.10
2018-09-27T10:08:11.470Z,2.10
2018-09-27T10:10:39.645Z,2.20
2018-09-27T10:13:07.830Z,1.50
2018-09-27T10:15:36.082Z,1.20
2018-09-27T10:18:04.320Z,1.17
2018-09-27T10:20:32.537Z,1.50
2018-09-27T10:23:00.729Z,1.10
2018-09-27T10:25:28.961Z,1.83
2018-09-27T10:27:57.140Z,1.47
2018-09-27T10:30:25.338Z,1.87
2018-09-27T10:32:53.541Z,1.83
2018-09-27T10:35:21.753Z,1.40
2018-09-27T10:37:49.963Z,1.20
2018-09-27T10:40:18.193Z,1.37
2018-09-27T10:42:46.350Z,1.67
2018-09-27T10:45:14.497Z,1.40
2018-09-27T10:47:42.635Z,2.40
2018-09-27T10:50:10.781Z,1.47
2018-09-27T10:52:38.930Z,1.63
2018-09-27T10:55:07.090Z,1.10
2018-09-27T10:57:35.235Z,1.80
2018-09-27T11:00:03.390Z,1.57
2018-09-27T11:02:31.545Z,1.30
2018-09-27T11:04:59.670Z,1.80
2018-09-27T11:07:27.814Z,2.67
2018-09-27T11:09:55.992Z,1.57
2018-09-27T11:12:24.136Z,1.73
2018-09-27T11:14:52.280Z,1.83
2018-09-27T11:17:20.431Z,1.43
2018-09-27T11:19:48.591Z,2.07
2018-09-27T11:22:16.833Z,2.20
2018-09-27T11:24:44.974Z,2.03
2018-09-27T11:27:13.133Z,1.73
2018-09-27T11:30:46.395Z,1.10
2018-09-27T11:33:14.543Z,1.43
2018-09-27T11:35:42.682Z,1.40
2018-09-27T11:38:10.823Z,1.53
2018-09-27T11:40:38.960Z,1.40
2018-09-27T11:43:07.131Z,1.63
2018-09-27T11:45:35.310Z,1.70
2018-09-27T11:48:03.462Z,1.40
2018-09-27T11:50:31.610Z,1.30
2018-09-27T11:52:59.780Z,1.40
2018-09-27T11:55:27.898Z,0.90
2018-09-27T11:57:56.026Z,1.97
2018-09-27T12:00:24.215Z,1.67
2018-09-27T12:02:52.340Z,1.33
2018-09-27T12:05:20.490Z,1.67
2018-09-27T12:07:48.645Z,1.30
2018-09-27T12:10:16.981Z,1.33
2018-09-27T12:12:45.113Z,1.57
2018-09-27T12:15:13.254Z,1.77
2018-09-27T12:17:41.461Z,1.60
2018-09-27T12:20:09.621Z,1.93
2018-09-27T12:22:37.701Z,1.47
2018-09-27T12:25:06.074Z,2.00
2018-09-27T12:27:34.205Z,1.37
2018-09-27T12:30:02.334Z,1.70
2018-09-27T12:32:30.483Z,1.30
2018-09-27T12:34:58.642Z,1.40
2018-09-27T12:37:26.770Z,2.40
2018-09-27T12:39:54.958Z,1.20
2018-09-27T12:42:23.120Z,1.43
2018-09-27T12:44:51.302Z,1.60
2018-09-27T12:47:19.424Z,1.20
2018-09-27T12:49:47.554Z,1.70
2018-09-27T12:52:16.082Z,2.07
2018-09-27T12:54:43.898Z,2.10
2018-09-27T12:57:12.068Z,1.30
2018-09-27T12:59:40.249Z,1.50
2018-09-27T13:02:08.492Z,1.10
2018-09-27T13:04:36.546Z,1.30
2018-09-27T13:07:04.784Z,1.67
2018-09-27T13:09:32.956Z,1.20
2018-09-27T13:12:01.156Z,1.87
2018-09-27T13:14:29.276Z,1.47
2018-09-27T13:16:57.510Z,1.40
2018-09-27T13:19:25.637Z,1.47
2018-09-27T13:21:53.836Z,1.40
2018-09-27T13:24:21.984Z,1.57
2018-09-27T13:26:50.125Z,1.43
2018-09-27T13:29:18.275Z,1.30
2018-09-27T13:31:46.397Z,2.37
2018-09-27T13:34:14.557Z,1.50
2018-09-27T13:36:42.672Z,2.13
2018-09-27T13:39:11.243Z,1.33
2018-09-27T13:41:39.950Z,1.53
2018-09-27T13:44:08.170Z,1.20
2018-09-27T13:46:37.034Z,1.30
2018-09-27T13:49:11.772Z,1.30
2018-09-27T13:51:39.773Z,1.57
2018-09-27T13:54:07.949Z,1.60
2018-09-27T13:56:36.093Z,1.97
2018-09-27T13:59:04.234Z,1.67
2018-09-27T14:01:32.386Z,1.63
2018-09-27T14:04:00.535Z,1.57
2018-09-27T14:06:28.675Z,1.40
2018-09-27T14:08:56.797Z,1.40
2018-09-27T14:11:24.925Z,1.90
2018-09-27T14:13:53.069Z,2.23
2018-09-27T14:16:21.231Z,0.93
2018-09-27T14:18:49.366Z,1.60
2018-09-27T14:21:17.528Z,1.60
2018-09-27T14:23:45.675Z,1.80
2018-09-27T14:26:13.814Z,1.70
2018-09-27T14:28:41.970Z,1.30
2018-09-27T14:31:10.115Z,2.30
2018-09-27T14:33:38.292Z,1.77
2018-09-27T14:36:06.534Z,1.63
2018-09-27T14:38:34.675Z,1.77
2018-09-27T14:41:02.825Z,1.30
2018-09-27T14:43:30.946Z,1.83
2018-09-27T14:45:59.095Z,2.23
2018-09-27T14:48:27.263Z,2.07
2018-09-27T14:50:55.448Z,1.87
2018-09-27T14:53:30.396Z,1.37
2018-09-27T14:55:58.624Z,1.97
2018-09-27T14:58:26.760Z,1.20
2018-09-27T15:00:54.921Z,1.67
2018-09-27T15:03:23.097Z,1.40
2018-09-27T15:05:51.269Z,1.77
2018-09-27T15:08:19.405Z,2.17
2018-09-27T15:10:47.620Z,1.73
2018-09-27T15:13:15.731Z,1.30
2018-09-27T15:15:43.897Z,1.93
2018-09-27T15:18:12.037Z,1.60
2018-09-27T15:20:40.191Z,1.97
2018-09-27T15:23:08.397Z,1.73
2018-09-27T15:25:36.562Z,1.83
2018-09-27T15:28:04.713Z,1.40
2018-09-27T15:30:32.899Z,1.70
2018-09-27T15:33:01.015Z,1.87
2018-09-27T15:35:29.187Z,1.27
2018-09-27T15:37:57.320Z,2.27
2018-09-27T15:40:25.470Z,2.10
2018-09-27T15:42:53.610Z,1.83
2018-09-27T15:45:21.785Z,1.70
2018-09-27T15:47:49.935Z,1.97
2018-09-27T15:50:18.296Z,1.73
2018-09-27T15:52:46.431Z,1.90
2018-09-27T15:55:14.574Z,1.73
2018-09-27T15:57:42.723Z,1.23
2018-09-27T16:00:10.898Z,2.80
2018-09-27T16:02:39.035Z,1.90
2018-09-27T16:05:07.221Z,1.90
2018-09-27T16:07:35.392Z,2.50
2018-09-27T16:10:03.538Z,1.63
2018-09-27T16:12:31.687Z,1.87
2018-09-27T16:14:59.848Z,2.47
2018-09-27T16:17:28.033Z,2.17
2018-09-27T16:19:56.186Z,2.07
2018-09-27T16:22:24.360Z,1.57
2018-09-27T16:24:52.509Z,2.30
2018-09-27T16:27:20.682Z,1.37
2018-09-27T16:29:48.839Z,1.50
2018-09-27T16:32:16.994Z,3.23
2018-09-27T16:34:45.159Z,1.90
2018-09-27T16:37:13.310Z,1.40
2018-09-27T16:39:41.482Z,1.00
2018-09-27T16:42:09.667Z,1.37
2018-09-27T16:44:37.816Z,1.40
2018-09-27T16:47:06.083Z,1.73
2018-09-27T16:49:34.243Z,1.33
2018-09-27T16:52:02.399Z,1.33
2018-09-27T16:54:30.545Z,1.40
2018-09-27T16:56:58.770Z,1.40
2018-09-27T16:59:26.936Z,1.57
2018-09-27T17:01:55.085Z,1.47
2018-09-27T17:04:23.267Z,1.60
2018-09-27T17:06:51.486Z,1.33
2018-09-27T17:09:20.474Z,1.63
2018-09-27T17:11:48.712Z,1.03
2018-09-27T17:14:16.850Z,1.10
2018-09-27T17:16:45.108Z,1.50
2018-09-27T17:19:13.220Z,2.77
2018-09-27T17:21:41.435Z,1.90
2018-09-27T17:24:09.620Z,2.27
2018-09-27T17:26:38.294Z,1.53
2018-09-27T17:29:06.434Z,1.60
2018-09-27T17:31:34.631Z,1.37
2018-09-27T17:34:02.738Z,1.17
2018-09-27T17:36:30.877Z,1.20
2018-09-27T17:38:59.030Z,1.30
2018-09-27T17:41:27.190Z,1.30
2018-09-27T17:43:55.538Z,1.40
2018-09-27T17:46:23.675Z,1.83
2018-09-27T17:48:51.817Z,3.67
2018-09-27T17:51:20.019Z,2.80
2018-09-27T17:53:48.163Z,2.23
2018-09-27T17:56:16.286Z,3.37
2018-09-27T17:58:44.436Z,8.80
2018-09-27T18:01:12.565Z,4.87
2018-09-27T18:03:40.703Z,3.73
2018-09-27T18:06:08.925Z,2.70
2018-09-27T18:08:37.070Z,3.00
2018-09-27T18:11:05.194Z,2.27
2018-09-27T18:13:33.398Z,2.27
2018-09-27T18:16:01.465Z,2.40
2018-09-27T18:18:29.593Z,2.43
2018-09-27T18:20:57.740Z,2.60
2018-09-27T18:23:32.712Z,2.47
2018-09-27T18:26:00.849Z,2.33
2018-09-27T18:28:29.074Z,2.60
2018-09-27T18:30:57.198Z,2.43
2018-09-27T18:33:25.374Z,2.67
2018-09-27T18:35:53.569Z,2.30
2018-09-27T18:38:21.718Z,3.13
2018-09-27T18:40:49.984Z,2.10
2018-09-27T18:43:18.213Z,2.40
2018-09-27T18:45:46.314Z,2.37
2018-09-27T18:48:14.499Z,2.00
2018-09-27T18:50:42.678Z,2.60
2018-09-27T18:53:10.818Z,2.40
2018-09-27T18:55:38.977Z,2.07
2018-09-27T18:58:07.138Z,3.00
2018-09-27T19:00:35.334Z,2.60
2018-09-27T19:03:03.486Z,2.47
2018-09-27T19:05:31.669Z,2.60
2018-09-27T19:07:59.823Z,2.20
2018-09-27T19:10:28.081Z,2.00
2018-09-27T19:12:56.226Z,1.70
2018-09-27T19:15:24.363Z,2.80
2018-09-27T19:17:52.523Z,2.50
2018-09-27T19:20:20.720Z,2.20
2018-09-27T19:22:48.928Z,5.10
2018-09-27T19:25:17.086Z,3.47
2018-09-27T19:27:45.320Z,2.30
2018-09-27T19:30:13.564Z,2.97
2018-09-27T19:32:41.737Z,3.00
2018-09-27T19:35:09.944Z,2.37
2018-09-27T19:37:38.094Z,3.30
2018-09-27T19:40:06.266Z,2.97
2018-09-27T19:42:34.396Z,3.33
2018-09-27T19:45:02.558Z,3.30
2018-09-27T19:47:30.689Z,5.27
2018-09-27T19:49:58.821Z,2.83
2018-09-27T19:52:26.938Z,3.10
2018-09-27T19:54:55.073Z,2.77
2018-09-27T19:57:23.233Z,3.67
2018-09-27T19:59:51.364Z,3.03
2018-09-27T20:02:19.598Z,2.63
2018-09-27T20:04:47.752Z,3.33
2018-09-27T20:07:15.913Z,2.73
2018-09-27T20:09:44.102Z,2.73
2018-09-27T20:12:12.297Z,3.03
2018-09-27T20:14:40.436Z,3.03
2018-09-27T20:17:08.587Z,2.97
2018-09-27T20:19:36.799Z,2.50
2018-09-27T20:22:05.004Z,2.47
2018-09-27T20:24:33.181Z,2.60
2018-09-27T20:27:01.305Z,2.47
2018-09-27T20:29:29.424Z,3.90
2018-09-27T20:31:57.549Z,3.00
2018-09-27T20:34:25.772Z,3.00
2018-09-27T20:36:53.861Z,2.90
2018-09-27T20:39:21.977Z,3.50
2018-09-27T20:41:50.133Z,3.00
2018-09-27T20:44:18.276Z,3.00
2018-09-27T20:46:46.428Z,8.07
2018-09-27T20:49:20.959Z,8.17
2018-09-27T20:51:49.124Z,5.37
2018-09-27T20:54:17.276Z,4.40
2018-09-27T20:56:45.489Z,5.30
2018-09-27T20:59:13.605Z,4.13
2018-09-27T21:01:41.798Z,4.27
2018-09-27T21:04:09.930Z,5.30
2018-09-27T21:06:38.747Z,5.53
2018-09-27T21:09:08.442Z,5.20
2018-09-27T21:11:36.597Z,5.40
2018-09-27T21:14:04.746Z,4.07
2018-09-27T21:16:32.939Z,4.83
2018-09-27T21:19:01.182Z,4.10
2018-09-27T21:21:29.363Z,3.97
2018-09-27T21:23:57.559Z,9.33
2018-09-27T21:26:25.803Z,22.53
2018-09-27T21:28:54.085Z,8.47
2018-09-27T21:31:22.288Z,4.70
2018-09-27T21:33:50.438Z,3.77
2018-09-27T21:36:18.648Z,3.20
2018-09-27T21:38:46.826Z,4.53
2018-09-27T21:41:14.970Z,4.17
2018-09-27T21:43:43.141Z,3.47
2018-09-27T21:46:11.270Z,4.30
2018-09-27T21:48:39.406Z,3.30
2018-09-27T21:51:07.562Z,3.43
2018-09-27T21:53:36.076Z,3.17
2018-09-27T21:56:04.198Z,3.30
2018-09-27T21:58:32.338Z,3.20
2018-09-27T22:01:00.475Z,3.20
2018-09-27T22:03:28.615Z,3.43
2018-09-27T22:05:56.746Z,4.63
2018-09-27T22:08:24.893Z,3.90
2018-09-27T22:10:53.037Z,3.90
2018-09-27T22:13:21.213Z,3.00
2018-09-27T22:15:49.511Z,3.17
2018-09-27T22:18:17.642Z,4.40
2018-09-27T22:20:45.825Z,4.40
2018-09-27T22:23:13.973Z,3.70
2018-09-27T22:25:42.128Z,3.70
2018-09-27T22:28:10.296Z,3.37
2018-09-27T22:30:38.550Z,3.60
2018-09-27T22:33:06.723Z,3.97
2018-09-27T22:35:34.878Z,3.73
2018-09-27T22:38:03.018Z,3.90
2018-09-27T22:40:31.154Z,3.23
2018-09-27T22:42:59.303Z,3.13
2018-09-27T22:45:27.492Z,3.13
2018-09-27T22:47:55.622Z,3.13
2018-09-27T22:50:23.750Z,2.57
2018-09-27T22:52:51.916Z,3.10
2018-09-27T22:55:20.054Z,2.60
2018-09-27T23:00:22.866Z,2.53
2018-09-27T23:02:51.243Z,2.50
2018-09-27T23:05:19.370Z,3.10
2018-09-27T23:07:47.554Z,3.07
2018-09-27T23:10:15.679Z,2.33
2018-09-27T23:12:43.818Z,2.50
2018-09-27T23:15:11.951Z,2.50
2018-09-27T23:17:40.102Z,2.40
2018-09-27T23:20:09.253Z,3.30
2018-09-27T23:22:37.387Z,2.90
2018-09-27T23:25:05.531Z,2.90
2018-09-27T23:27:33.717Z,2.80
2018-09-27T23:30:01.852Z,2.73
2018-09-27T23:32:29.986Z,3.00
2018-09-27T23:34:58.122Z,2.60
2018-09-27T23:37:26.262Z,2.67
2018-09-27T23:39:54.424Z,3.83
2018-09-27T23:42:22.684Z,2.30
2018-09-27T23:44:50.866Z,2.90
2018-09-27T23:47:18.996Z,4.03
2018-09-27T23:49:47.134Z,2.70
2018-09-27T23:52:15.284Z,4.27
2018-09-27T23:54:43.449Z,3.00
2018-09-27T23:57:11.569Z,3.40
2018-09-27T23:59:39.865Z,3.63
